sensor_id;sensor_type;location;lat;lon;timestamp;temperature;humidity
2002;DHT22;1003;48.002;7.788;2023-09-08T00:00:07;19.60;99.90
2002;DHT22;1003;48.002;7.788;2023-09-08T00:02:34;19.50;99.90
2002;DHT22;1003;48.002;7.788;2023-09-08T00:05:02;19.50;99.90
2002;DHT22;1003;48.002;7.788;2023-09-08T00:07:29;19.60;99.90
2002;DHT22;1003;48.002;7.788;2023-09-08T00:09:56;19.60;99.90
2002;DHT22;1003;48.002;7.788;2023-09-08T00:12:24;19.60;99.90
2002;DHT22;1003;48.002;7.788;2023-09-08T00:14:51;19.50;99.90
2002;DHT22;1003;48.002;7.788;2023-09-08T00:17:18;19.40;99.90
2002;DHT22;1003;48.002;7.788;2023-09-08T00:19:45;19.30;99.90
2002;DHT22;1003;48.002;7.788;2023-09-08T00:22:12;19.20;99.90
2002;DHT22;1003;48.002;7.788;2023-09-08T00:24:39;19.00;99.90
2002;DHT22;1003;48.002;7.788;2023-09-08T00:27:06;19.00;99.90
2002;DHT22;1003;48.002;7.788;2023-09-08T00:29:36;18.90;99.90
2002;DHT22;1003;48.002;7.788;2023-09-08T00:32:03;18.90;99.90
2002;DHT22;1003;48.002;7.788;2023-09-08T00:34:31;18.80;99.90
2002;DHT22;1003;48.002;7.788;2023-09-08T00:36:58;18.80;99.90
2002;DHT22;1003;48.002;7.788;2023-09-08T00:39:30;18.70;99.90
2002;DHT22;1003;48.002;7.788;2023-09-08T00:41:57;18.50;99.90
2002;DHT22;1003;48.002;7.788;2023-09-08T00:44:25;18.40;99.90
2002;DHT22;1003;48.002;7.788;2023-09-08T00:46:53;18.30;99.90
2002;DHT22;1003;48.002;7.788;2023-09-08T00:49:21;18.20;99.90
2002;DHT22;1003;48.002;7.788;2023-09-08T00:51:48;18.20;99.90
2002;DHT22;1003;48.002;7.788;2023-09-08T00:54:15;18.20;99.90
2002;DHT22;1003;48.002;7.788;2023-09-08T00:56:42;18.10;99.90
2002;DHT22;1003;48.002;7.788;2023-09-08T00:59:11;18.10;99.90
2002;DHT22;1003;48.002;7.788;2023-09-08T01:01:38;18.10;99.90
2002;DHT22;1003;48.002;7.788;2023-09-08T01:04:07;18.10;99.90
2002;DHT22;1003;48.002;7.788;2023-09-08T01:06:34;18.20;99.90
2002;DHT22;1003;48.002;7.788;2023-09-08T01:09:03;18.10;99.90
2002;DHT22;1003;48.002;7.788;2023-09-08T01:11:31;18.10;99.90
2002;DHT22;1003;48.002;7.788;2023-09-08T01:13:58;18.10;99.90
2002;DHT22;1003;48.002;7.788;2023-09-08T01:16:25;18.10;99.90
2002;DHT22;1003;48.002;7.788;2023-09-08T01:18:52;18.10;99.90
2002;DHT22;1003;48.002;7.788;2023-09-08T01:21:58;18.10;99.90
2002;DHT22;1003;48.002;7.788;2023-09-08T01:25:06;18.10;99.90
2002;DHT22;1003;48.002;7.788;2023-09-08T01:27:45;18.10;99.90
2002;DHT22;1003;48.002;7.788;2023-09-08T01:30:14;18.10;99.90
2002;DHT22;1003;48.002;7.788;2023-09-08T01:32:43;18.10;99.90
2002;DHT22;1003;48.002;7.788;2023-09-08T01:35:11;18.10;99.90
2002;DHT22;1003;48.002;7.788;2023-09-08T01:37:44;18.10;99.90
2002;DHT22;1003;48.002;7.788;2023-09-08T01:40:14;18.00;99.90
2002;DHT22;1003;48.002;7.788;2023-09-08T01:42:42;18.00;99.90
2002;DHT22;1003;48.002;7.788;2023-09-08T01:45:09;18.00;99.90
2002;DHT22;1003;48.002;7.788;2023-09-08T01:47:36;17.90;99.90
2002;DHT22;1003;48.002;7.788;2023-09-08T01:50:04;17.90;99.90
2002;DHT22;1003;48.002;7.788;2023-09-08T01:52:32;17.90;99.90
2002;DHT22;1003;48.002;7.788;2023-09-08T01:54:59;17.80;99.90
2002;DHT22;1003;48.002;7.788;2023-09-08T01:57:27;17.80;99.90
2002;DHT22;1003;48.002;7.788;2023-09-08T01:59:54;17.80;99.90
2002;DHT22;1003;48.002;7.788;2023-09-08T02:02:21;17.80;99.90
2002;DHT22;1003;48.002;7.788;2023-09-08T02:04:48;17.80;99.90
2002;DHT22;1003;48.002;7.788;2023-09-08T02:07:15;17.80;99.90
2002;DHT22;1003;48.002;7.788;2023-09-08T02:09:42;17.70;99.90
2002;DHT22;1003;48.002;7.788;2023-09-08T02:12:09;17.70;99.90
2002;DHT22;1003;48.002;7.788;2023-09-08T02:14:38;17.70;99.90
2002;DHT22;1003;48.002;7.788;2023-09-08T02:17:05;17.70;99.90
2002;DHT22;1003;48.002;7.788;2023-09-08T02:19:32;17.70;99.90
2002;DHT22;1003;48.002;7.788;2023-09-08T02:21:59;17.80;99.90
2002;DHT22;1003;48.002;7.788;2023-09-08T02:24:26;17.80;99.90
2002;DHT22;1003;48.002;7.788;2023-09-08T02:26:54;17.80;99.90
2002;DHT22;1003;48.002;7.788;2023-09-08T02:29:21;17.70;99.90
2002;DHT22;1003;48.002;7.788;2023-09-08T02:31:50;17.70;99.90
2002;DHT22;1003;48.002;7.788;2023-09-08T02:34:17;17.70;99.90
2002;DHT22;1003;48.002;7.788;2023-09-08T02:43:44;17.80;99.90
2002;DHT22;1003;48.002;7.788;2023-09-08T02:46:11;17.70;99.90
2002;DHT22;1003;48.002;7.788;2023-09-08T02:48:40;17.70;99.90
2002;DHT22;1003;48.002;7.788;2023-09-08T02:51:08;17.70;99.90
2002;DHT22;1003;48.002;7.788;2023-09-08T02:53:35;17.70;99.90
2002;DHT22;1003;48.002;7.788;2023-09-08T02:56:02;17.70;99.90
2002;DHT22;1003;48.002;7.788;2023-09-08T02:58:31;17.70;99.90
2002;DHT22;1003;48.002;7.788;2023-09-08T03:01:09;17.70;99.90
2002;DHT22;1003;48.002;7.788;2023-09-08T03:03:40;17.70;99.90
2002;DHT22;1003;48.002;7.788;2023-09-08T03:06:08;17.60;99.90
2002;DHT22;1003;48.002;7.788;2023-09-08T03:08:35;17.70;99.90
2002;DHT22;1003;48.002;7.788;2023-09-08T03:11:04;17.70;99.90
2002;DHT22;1003;48.002;7.788;2023-09-08T03:13:32;17.70;99.90
2002;DHT22;1003;48.002;7.788;2023-09-08T03:16:03;17.70;99.90
2002;DHT22;1003;48.002;7.788;2023-09-08T03:18:31;17.70;99.90
2002;DHT22;1003;48.002;7.788;2023-09-08T03:20:59;17.70;99.90
2002;DHT22;1003;48.002;7.788;2023-09-08T03:23:34;17.60;99.90
2002;DHT22;1003;48.002;7.788;2023-09-08T03:26:01;17.50;99.90
2002;DHT22;1003;48.002;7.788;2023-09-08T03:28:28;17.50;99.90
2002;DHT22;1003;48.002;7.788;2023-09-08T03:30:55;17.40;99.90
2002;DHT22;1003;48.002;7.788;2023-09-08T03:33:22;17.30;99.90
2002;DHT22;1003;48.002;7.788;2023-09-08T03:35:49;17.20;99.90
2002;DHT22;1003;48.002;7.788;2023-09-08T03:38:18;17.10;99.90
2002;DHT22;1003;48.002;7.788;2023-09-08T03:40:45;17.00;99.90
2002;DHT22;1003;48.002;7.788;2023-09-08T03:43:12;17.00;99.90
2002;DHT22;1003;48.002;7.788;2023-09-08T03:45:39;17.00;99.90
2002;DHT22;1003;48.002;7.788;2023-09-08T03:48:06;17.10;99.90
2002;DHT22;1003;48.002;7.788;2023-09-08T03:50:34;17.10;99.90
2002;DHT22;1003;48.002;7.788;2023-09-08T03:53:01;17.10;99.90
2002;DHT22;1003;48.002;7.788;2023-09-08T03:55:30;17.00;99.90
2002;DHT22;1003;48.002;7.788;2023-09-08T03:57:57;16.90;99.90
2002;DHT22;1003;48.002;7.788;2023-09-08T04:00:25;16.90;99.90
2002;DHT22;1003;48.002;7.788;2023-09-08T04:02:52;16.80;99.90
2002;DHT22;1003;48.002;7.788;2023-09-08T04:05:19;16.80;99.90
2002;DHT22;1003;48.002;7.788;2023-09-08T04:07:46;16.80;99.90
2002;DHT22;1003;48.002;7.788;2023-09-08T04:10:13;16.70;99.90
2002;DHT22;1003;48.002;7.788;2023-09-08T04:12:42;16.70;99.90
2002;DHT22;1003;48.002;7.788;2023-09-08T04:15:10;16.70;99.90
2002;DHT22;1003;48.002;7.788;2023-09-08T04:17:37;16.70;99.90
2002;DHT22;1003;48.002;7.788;2023-09-08T04:20:05;16.70;99.90
2002;DHT22;1003;48.002;7.788;2023-09-08T04:22:33;16.70;99.90
2002;DHT22;1003;48.002;7.788;2023-09-08T04:25:01;16.80;99.90
2002;DHT22;1003;48.002;7.788;2023-09-08T04:27:29;16.80;99.90
2002;DHT22;1003;48.002;7.788;2023-09-08T04:29:57;16.90;99.90
2002;DHT22;1003;48.002;7.788;2023-09-08T04:32:24;16.90;99.90
2002;DHT22;1003;48.002;7.788;2023-09-08T04:34:51;17.00;99.90
2002;DHT22;1003;48.002;7.788;2023-09-08T04:37:18;17.10;99.90
2002;DHT22;1003;48.002;7.788;2023-09-08T04:39:46;17.20;99.90
2002;DHT22;1003;48.002;7.788;2023-09-08T04:42:13;17.30;99.90
2002;DHT22;1003;48.002;7.788;2023-09-08T04:44:40;17.40;99.90
2002;DHT22;1003;48.002;7.788;2023-09-08T04:47:09;17.50;99.90
2002;DHT22;1003;48.002;7.788;2023-09-08T04:49:35;17.60;99.90
2002;DHT22;1003;48.002;7.788;2023-09-08T04:52:03;17.70;99.90
2002;DHT22;1003;48.002;7.788;2023-09-08T04:54:31;17.80;99.90
2002;DHT22;1003;48.002;7.788;2023-09-08T04:56:58;17.80;99.90
2002;DHT22;1003;48.002;7.788;2023-09-08T04:59:25;17.80;99.90
2002;DHT22;1003;48.002;7.788;2023-09-08T05:01:52;17.90;99.90
2002;DHT22;1003;48.002;7.788;2023-09-08T05:04:21;17.90;99.90
2002;DHT22;1003;48.002;7.788;2023-09-08T05:06:48;17.80;99.90
2002;DHT22;1003;48.002;7.788;2023-09-08T05:09:15;17.80;99.90
2002;DHT22;1003;48.002;7.788;2023-09-08T05:11:42;17.90;99.90
2002;DHT22;1003;48.002;7.788;2023-09-08T05:14:09;17.90;99.90
2002;DHT22;1003;48.002;7.788;2023-09-08T05:16:36;17.90;99.90
2002;DHT22;1003;48.002;7.788;2023-09-08T05:19:05;18.00;99.90
2002;DHT22;1003;48.002;7.788;2023-09-08T05:21:34;18.00;99.90
2002;DHT22;1003;48.002;7.788;2023-09-08T05:24:01;18.10;99.90
2002;DHT22;1003;48.002;7.788;2023-09-08T05:26:28;18.10;99.90
2002;DHT22;1003;48.002;7.788;2023-09-08T05:28:55;18.20;99.90
2002;DHT22;1003;48.002;7.788;2023-09-08T05:31:22;18.20;99.90
2002;DHT22;1003;48.002;7.788;2023-09-08T05:33:49;18.30;99.90
2002;DHT22;1003;48.002;7.788;2023-09-08T05:36:16;18.40;99.90
2002;DHT22;1003;48.002;7.788;2023-09-08T05:38:45;18.40;99.90
2002;DHT22;1003;48.002;7.788;2023-09-08T05:41:12;18.60;99.90
2002;DHT22;1003;48.002;7.788;2023-09-08T05:43:39;18.70;99.90
2002;DHT22;1003;48.002;7.788;2023-09-08T05:46:06;18.70;99.90
2002;DHT22;1003;48.002;7.788;2023-09-08T05:48:33;18.80;99.90
2002;DHT22;1003;48.002;7.788;2023-09-08T05:51:00;18.90;99.90
2002;DHT22;1003;48.002;7.788;2023-09-08T05:53:27;19.00;99.90
2002;DHT22;1003;48.002;7.788;2023-09-08T05:55:56;19.10;99.90
2002;DHT22;1003;48.002;7.788;2023-09-08T05:58:23;19.20;99.90
2002;DHT22;1003;48.002;7.788;2023-09-08T06:00:52;19.30;99.90
2002;DHT22;1003;48.002;7.788;2023-09-08T06:03:20;19.40;99.90
2002;DHT22;1003;48.002;7.788;2023-09-08T06:05:47;19.50;99.90
2002;DHT22;1003;48.002;7.788;2023-09-08T06:08:14;19.60;99.90
2002;DHT22;1003;48.002;7.788;2023-09-08T06:10:41;19.80;99.90
2002;DHT22;1003;48.002;7.788;2023-09-08T06:13:09;20.00;99.90
2002;DHT22;1003;48.002;7.788;2023-09-08T06:15:36;20.30;99.90
2002;DHT22;1003;48.002;7.788;2023-09-08T06:18:03;20.70;99.90
2002;DHT22;1003;48.002;7.788;2023-09-08T06:20:31;21.20;99.90
2002;DHT22;1003;48.002;7.788;2023-09-08T06:22:58;21.60;99.90
2002;DHT22;1003;48.002;7.788;2023-09-08T06:25:26;21.90;99.90
2002;DHT22;1003;48.002;7.788;2023-09-08T06:27:54;22.20;99.90
2002;DHT22;1003;48.002;7.788;2023-09-08T06:30:22;22.40;99.90
2002;DHT22;1003;48.002;7.788;2023-09-08T06:32:49;22.60;99.90
2002;DHT22;1003;48.002;7.788;2023-09-08T06:35:16;22.90;99.90
2002;DHT22;1003;48.002;7.788;2023-09-08T06:37:43;23.10;99.90
2002;DHT22;1003;48.002;7.788;2023-09-08T06:40:10;23.30;99.90
2002;DHT22;1003;48.002;7.788;2023-09-08T06:42:37;23.40;99.90
2002;DHT22;1003;48.002;7.788;2023-09-08T06:45:05;23.70;99.90
2002;DHT22;1003;48.002;7.788;2023-09-08T06:47:35;23.80;99.90
2002;DHT22;1003;48.002;7.788;2023-09-08T06:50:02;23.80;99.90
2002;DHT22;1003;48.002;7.788;2023-09-08T06:52:29;24.00;99.90
2002;DHT22;1003;48.002;7.788;2023-09-08T06:54:56;24.10;99.90
2002;DHT22;1003;48.002;7.788;2023-09-08T06:57:23;24.00;99.90
2002;DHT22;1003;48.002;7.788;2023-09-08T06:59:50;24.00;99.90
2002;DHT22;1003;48.002;7.788;2023-09-08T07:02:17;24.10;99.90
2002;DHT22;1003;48.002;7.788;2023-09-08T07:04:46;24.10;99.90
2002;DHT22;1003;48.002;7.788;2023-09-08T07:07:12;24.10;99.90
2002;DHT22;1003;48.002;7.788;2023-09-08T07:09:39;24.30;99.90
2002;DHT22;1003;48.002;7.788;2023-09-08T07:12:07;24.40;99.90
2002;DHT22;1003;48.002;7.788;2023-09-08T07:14:34;24.60;99.90
2002;DHT22;1003;48.002;7.788;2023-09-08T07:17:01;24.80;99.90
2002;DHT22;1003;48.002;7.788;2023-09-08T07:19:28;25.00;99.90
2002;DHT22;1003;48.002;7.788;2023-09-08T07:21:56;25.10;99.90
2002;DHT22;1003;48.002;7.788;2023-09-08T07:24:23;25.20;99.90
2002;DHT22;1003;48.002;7.788;2023-09-08T07:26:50;25.10;99.90
2002;DHT22;1003;48.002;7.788;2023-09-08T07:29:17;25.20;99.90
2002;DHT22;1003;48.002;7.788;2023-09-08T07:31:44;25.20;99.90
2002;DHT22;1003;48.002;7.788;2023-09-08T07:34:11;25.10;99.90
2002;DHT22;1003;48.002;7.788;2023-09-08T07:36:38;25.30;99.90
2002;DHT22;1003;48.002;7.788;2023-09-08T07:39:07;25.40;99.90
2002;DHT22;1003;48.002;7.788;2023-09-08T07:41:34;25.50;99.90
2002;DHT22;1003;48.002;7.788;2023-09-08T07:44:02;25.50;99.90
2002;DHT22;1003;48.002;7.788;2023-09-08T07:46:29;25.40;99.90
2002;DHT22;1003;48.002;7.788;2023-09-08T07:48:58;25.40;99.90
2002;DHT22;1003;48.002;7.788;2023-09-08T07:51:26;25.40;99.90
2002;DHT22;1003;48.002;7.788;2023-09-08T07:53:53;25.50;99.90
2002;DHT22;1003;48.002;7.788;2023-09-08T07:56:22;25.40;99.90
2002;DHT22;1003;48.002;7.788;2023-09-08T07:58:49;25.50;99.90
2002;DHT22;1003;48.002;7.788;2023-09-08T08:01:17;25.40;99.90
2002;DHT22;1003;48.002;7.788;2023-09-08T08:03:44;25.20;99.90
2002;DHT22;1003;48.002;7.788;2023-09-08T08:06:11;25.30;99.90
2002;DHT22;1003;48.002;7.788;2023-09-08T08:08:38;25.60;99.90
2002;DHT22;1003;48.002;7.788;2023-09-08T08:11:10;25.90;99.90
2002;DHT22;1003;48.002;7.788;2023-09-08T08:13:39;25.60;99.90
2002;DHT22;1003;48.002;7.788;2023-09-08T08:16:06;25.70;99.90
2002;DHT22;1003;48.002;7.788;2023-09-08T08:18:33;25.70;99.90
2002;DHT22;1003;48.002;7.788;2023-09-08T08:21:00;25.60;99.90
2002;DHT22;1003;48.002;7.788;2023-09-08T08:23:29;25.80;99.90
2002;DHT22;1003;48.002;7.788;2023-09-08T08:25:56;26.00;99.90
2002;DHT22;1003;48.002;7.788;2023-09-08T08:28:24;26.10;99.90
2002;DHT22;1003;48.002;7.788;2023-09-08T08:30:52;26.10;99.90
2002;DHT22;1003;48.002;7.788;2023-09-08T08:33:20;26.20;99.90
2002;DHT22;1003;48.002;7.788;2023-09-08T08:35:51;26.20;99.90
2002;DHT22;1003;48.002;7.788;2023-09-08T08:38:19;26.00;99.90
2002;DHT22;1003;48.002;7.788;2023-09-08T08:40:46;26.10;99.90
2002;DHT22;1003;48.002;7.788;2023-09-08T08:43:13;25.90;99.90
2002;DHT22;1003;48.002;7.788;2023-09-08T08:45:41;25.90;99.90
2002;DHT22;1003;48.002;7.788;2023-09-08T08:48:12;26.00;99.90
2002;DHT22;1003;48.002;7.788;2023-09-08T08:50:42;26.10;99.90
2002;DHT22;1003;48.002;7.788;2023-09-08T08:53:10;25.90;99.90
2002;DHT22;1003;48.002;7.788;2023-09-08T08:55:38;25.90;99.90
2002;DHT22;1003;48.002;7.788;2023-09-08T08:58:06;25.80;99.90
2002;DHT22;1003;48.002;7.788;2023-09-08T09:00:35;25.80;99.90
2002;DHT22;1003;48.002;7.788;2023-09-08T09:03:05;25.80;99.90
2002;DHT22;1003;48.002;7.788;2023-09-08T09:05:34;25.90;99.90
2002;DHT22;1003;48.002;7.788;2023-09-08T09:08:04;25.90;99.90
2002;DHT22;1003;48.002;7.788;2023-09-08T09:10:32;26.00;99.90
2002;DHT22;1003;48.002;7.788;2023-09-08T09:12:59;25.90;99.90
2002;DHT22;1003;48.002;7.788;2023-09-08T09:15:29;25.80;99.90
2002;DHT22;1003;48.002;7.788;2023-09-08T09:18:07;25.80;99.90
2002;DHT22;1003;48.002;7.788;2023-09-08T09:20:36;25.70;99.90
2002;DHT22;1003;48.002;7.788;2023-09-08T09:23:05;25.70;99.90
2002;DHT22;1003;48.002;7.788;2023-09-08T09:25:33;25.80;99.90
2002;DHT22;1003;48.002;7.788;2023-09-08T09:28:02;25.80;99.90
2002;DHT22;1003;48.002;7.788;2023-09-08T09:30:47;26.10;99.90
2002;DHT22;1003;48.002;7.788;2023-09-08T09:33:15;26.10;99.90
2002;DHT22;1003;48.002;7.788;2023-09-08T09:35:45;26.00;99.90
2002;DHT22;1003;48.002;7.788;2023-09-08T09:38:13;26.00;99.90
2002;DHT22;1003;48.002;7.788;2023-09-08T09:40:41;26.10;99.90
2002;DHT22;1003;48.002;7.788;2023-09-08T09:43:09;26.10;99.90
2002;DHT22;1003;48.002;7.788;2023-09-08T09:45:38;26.10;99.90
2002;DHT22;1003;48.002;7.788;2023-09-08T09:48:08;26.10;99.90
2002;DHT22;1003;48.002;7.788;2023-09-08T09:50:38;26.20;99.90
2002;DHT22;1003;48.002;7.788;2023-09-08T09:53:12;26.40;99.90
2002;DHT22;1003;48.002;7.788;2023-09-08T09:55:41;26.50;99.90
2002;DHT22;1003;48.002;7.788;2023-09-08T09:58:10;26.40;99.90
2002;DHT22;1003;48.002;7.788;2023-09-08T10:00:38;26.40;99.90
2002;DHT22;1003;48.002;7.788;2023-09-08T10:03:07;26.50;99.90
2002;DHT22;1003;48.002;7.788;2023-09-08T10:05:34;26.60;99.90
2002;DHT22;1003;48.002;7.788;2023-09-08T10:08:01;26.70;99.90
2002;DHT22;1003;48.002;7.788;2023-09-08T10:10:32;26.60;99.90
2002;DHT22;1003;48.002;7.788;2023-09-08T10:13:02;26.70;99.90
2002;DHT22;1003;48.002;7.788;2023-09-08T10:15:33;26.80;99.90
2002;DHT22;1003;48.002;7.788;2023-09-08T10:18:04;27.00;99.90
2002;DHT22;1003;48.002;7.788;2023-09-08T10:20:33;27.10;99.90
2002;DHT22;1003;48.002;7.788;2023-09-08T10:23:06;27.30;99.90
2002;DHT22;1003;48.002;7.788;2023-09-08T10:25:46;27.20;99.90
2002;DHT22;1003;48.002;7.788;2023-09-08T10:28:20;27.10;99.90
2002;DHT22;1003;48.002;7.788;2023-09-08T10:30:48;27.20;99.90
2002;DHT22;1003;48.002;7.788;2023-09-08T10:33:18;27.20;99.90
2002;DHT22;1003;48.002;7.788;2023-09-08T10:35:46;27.20;99.90
2002;DHT22;1003;48.002;7.788;2023-09-08T10:38:24;27.20;99.90
2002;DHT22;1003;48.002;7.788;2023-09-08T10:40:54;27.30;99.90
2002;DHT22;1003;48.002;7.788;2023-09-08T10:43:55;27.40;99.90
2002;DHT22;1003;48.002;7.788;2023-09-08T10:46:26;27.50;99.90
2002;DHT22;1003;48.002;7.788;2023-09-08T10:48:55;27.50;99.90
2002;DHT22;1003;48.002;7.788;2023-09-08T10:51:28;27.50;99.90
2002;DHT22;1003;48.002;7.788;2023-09-08T10:53:55;27.60;99.90
2002;DHT22;1003;48.002;7.788;2023-09-08T10:56:29;27.70;99.90
2002;DHT22;1003;48.002;7.788;2023-09-08T10:59:15;27.80;99.90
2002;DHT22;1003;48.002;7.788;2023-09-08T11:01:42;27.90;99.90
2002;DHT22;1003;48.002;7.788;2023-09-08T11:04:09;27.90;99.90
2002;DHT22;1003;48.002;7.788;2023-09-08T11:06:38;27.90;99.90
2002;DHT22;1003;48.002;7.788;2023-09-08T11:09:06;28.10;99.90
2002;DHT22;1003;48.002;7.788;2023-09-08T11:11:36;28.10;99.90
2002;DHT22;1003;48.002;7.788;2023-09-08T11:14:03;28.00;99.90
2002;DHT22;1003;48.002;7.788;2023-09-08T11:16:30;28.00;99.90
2002;DHT22;1003;48.002;7.788;2023-09-08T11:18:58;28.00;99.90
2002;DHT22;1003;48.002;7.788;2023-09-08T11:21:26;28.10;99.90
2002;DHT22;1003;48.002;7.788;2023-09-08T11:24:00;28.10;99.90
2002;DHT22;1003;48.002;7.788;2023-09-08T11:26:28;28.20;99.90
2002;DHT22;1003;48.002;7.788;2023-09-08T11:28:57;28.30;99.90
2002;DHT22;1003;48.002;7.788;2023-09-08T11:31:24;28.30;99.90
2002;DHT22;1003;48.002;7.788;2023-09-08T11:33:55;28.40;99.90
2002;DHT22;1003;48.002;7.788;2023-09-08T11:36:22;28.40;99.90
2002;DHT22;1003;48.002;7.788;2023-09-08T11:38:49;28.50;99.90
2002;DHT22;1003;48.002;7.788;2023-09-08T11:41:16;28.60;99.90
2002;DHT22;1003;48.002;7.788;2023-09-08T11:43:48;28.60;99.90
2002;DHT22;1003;48.002;7.788;2023-09-08T11:46:17;28.60;99.90
2002;DHT22;1003;48.002;7.788;2023-09-08T11:48:45;28.60;99.90
2002;DHT22;1003;48.002;7.788;2023-09-08T11:51:12;28.70;99.90
2002;DHT22;1003;48.002;7.788;2023-09-08T11:53:40;28.80;99.90
2002;DHT22;1003;48.002;7.788;2023-09-08T11:56:08;28.70;99.90
2002;DHT22;1003;48.002;7.788;2023-09-08T11:58:35;28.70;99.90
2002;DHT22;1003;48.002;7.788;2023-09-08T12:01:03;28.70;99.90
2002;DHT22;1003;48.002;7.788;2023-09-08T12:03:32;28.90;99.90
2002;DHT22;1003;48.002;7.788;2023-09-08T12:05:59;29.00;99.90
2002;DHT22;1003;48.002;7.788;2023-09-08T12:08:27;29.00;99.90
2002;DHT22;1003;48.002;7.788;2023-09-08T12:10:55;29.00;99.90
2002;DHT22;1003;48.002;7.788;2023-09-08T12:13:23;29.00;99.90
2002;DHT22;1003;48.002;7.788;2023-09-08T12:15:50;29.00;99.90
2002;DHT22;1003;48.002;7.788;2023-09-08T12:18:18;29.00;99.90
2002;DHT22;1003;48.002;7.788;2023-09-08T12:20:46;29.00;99.90
2002;DHT22;1003;48.002;7.788;2023-09-08T12:23:30;29.00;99.90
2002;DHT22;1003;48.002;7.788;2023-09-08T12:25:57;29.10;99.90
2002;DHT22;1003;48.002;7.788;2023-09-08T12:28:30;29.20;99.90
2002;DHT22;1003;48.002;7.788;2023-09-08T12:30:58;29.10;99.90
2002;DHT22;1003;48.002;7.788;2023-09-08T12:33:26;29.20;99.90
2002;DHT22;1003;48.002;7.788;2023-09-08T12:35:59;29.30;99.90
2002;DHT22;1003;48.002;7.788;2023-09-08T12:38:31;29.40;99.90
2002;DHT22;1003;48.002;7.788;2023-09-08T12:40:58;29.30;99.90
2002;DHT22;1003;48.002;7.788;2023-09-08T12:43:25;29.30;99.90
2002;DHT22;1003;48.002;7.788;2023-09-08T12:45:52;29.30;99.90
2002;DHT22;1003;48.002;7.788;2023-09-08T12:48:19;29.30;99.90
2002;DHT22;1003;48.002;7.788;2023-09-08T12:50:46;29.30;99.90
2002;DHT22;1003;48.002;7.788;2023-09-08T12:53:15;29.30;99.90
2002;DHT22;1003;48.002;7.788;2023-09-08T12:55:43;29.40;99.90
2002;DHT22;1003;48.002;7.788;2023-09-08T12:58:10;29.40;99.90
2002;DHT22;1003;48.002;7.788;2023-09-08T13:00:37;29.40;99.90
2002;DHT22;1003;48.002;7.788;2023-09-08T13:03:04;29.50;99.90
2002;DHT22;1003;48.002;7.788;2023-09-08T13:05:31;29.50;99.90
2002;DHT22;1003;48.002;7.788;2023-09-08T13:07:58;29.50;99.90
2002;DHT22;1003;48.002;7.788;2023-09-08T13:10:27;29.50;99.90
2002;DHT22;1003;48.002;7.788;2023-09-08T13:12:54;29.40;99.90
2002;DHT22;1003;48.002;7.788;2023-09-08T13:15:21;29.40;99.90
2002;DHT22;1003;48.002;7.788;2023-09-08T13:17:49;29.40;99.90
2002;DHT22;1003;48.002;7.788;2023-09-08T13:20:16;29.30;99.90
2002;DHT22;1003;48.002;7.788;2023-09-08T13:22:43;29.40;99.90
2002;DHT22;1003;48.002;7.788;2023-09-08T13:25:10;29.50;99.90
2002;DHT22;1003;48.002;7.788;2023-09-08T13:27:40;29.50;99.90
2002;DHT22;1003;48.002;7.788;2023-09-08T13:30:09;29.50;99.90
2002;DHT22;1003;48.002;7.788;2023-09-08T13:32:37;29.50;99.90
2002;DHT22;1003;48.002;7.788;2023-09-08T13:35:06;29.50;99.90
2002;DHT22;1003;48.002;7.788;2023-09-08T13:37:33;29.50;99.90
2002;DHT22;1003;48.002;7.788;2023-09-08T13:40:03;29.50;99.90
2002;DHT22;1003;48.002;7.788;2023-09-08T13:42:31;29.50;99.90
2002;DHT22;1003;48.002;7.788;2023-09-08T13:45:00;29.50;99.90
2002;DHT22;1003;48.002;7.788;2023-09-08T13:47:27;29.60;99.90
2002;DHT22;1003;48.002;7.788;2023-09-08T13:49:54;29.60;99.90
2002;DHT22;1003;48.002;7.788;2023-09-08T13:52:21;29.60;99.90
2002;DHT22;1003;48.002;7.788;2023-09-08T13:54:48;29.60;99.90
2002;DHT22;1003;48.002;7.788;2023-09-08T13:57:15;29.70;99.90
2002;DHT22;1003;48.002;7.788;2023-09-08T13:59:42;29.60;99.90
2002;DHT22;1003;48.002;7.788;2023-09-08T14:02:10;29.70;99.90
2002;DHT22;1003;48.002;7.788;2023-09-08T14:04:37;29.70;99.90
2002;DHT22;1003;48.002;7.788;2023-09-08T14:07:05;29.70;99.90
2002;DHT22;1003;48.002;7.788;2023-09-08T14:09:32;29.80;99.90
2002;DHT22;1003;48.002;7.788;2023-09-08T14:11:59;29.80;99.90
2002;DHT22;1003;48.002;7.788;2023-09-08T14:14:26;29.80;99.90
2002;DHT22;1003;48.002;7.788;2023-09-08T14:16:53;29.80;99.90
2002;DHT22;1003;48.002;7.788;2023-09-08T14:19:22;29.90;99.90
2002;DHT22;1003;48.002;7.788;2023-09-08T14:21:49;29.90;99.90
2002;DHT22;1003;48.002;7.788;2023-09-08T14:24:16;29.80;99.90
2002;DHT22;1003;48.002;7.788;2023-09-08T14:26:43;29.80;99.90
2002;DHT22;1003;48.002;7.788;2023-09-08T14:29:10;29.80;99.90
2002;DHT22;1003;48.002;7.788;2023-09-08T14:31:37;29.70;99.90
2002;DHT22;1003;48.002;7.788;2023-09-08T14:34:04;29.70;99.90
2002;DHT22;1003;48.002;7.788;2023-09-08T14:36:33;29.80;99.90
2002;DHT22;1003;48.002;7.788;2023-09-08T14:39:00;29.80;99.90
2002;DHT22;1003;48.002;7.788;2023-09-08T14:41:27;29.70;99.90
2002;DHT22;1003;48.002;7.788;2023-09-08T14:43:54;29.80;99.90
2002;DHT22;1003;48.002;7.788;2023-09-08T14:46:21;29.80;99.90
2002;DHT22;1003;48.002;7.788;2023-09-08T14:48:48;29.70;99.90
2002;DHT22;1003;48.002;7.788;2023-09-08T14:51:15;29.80;99.90
2002;DHT22;1003;48.002;7.788;2023-09-08T14:53:43;29.80;99.90
2002;DHT22;1003;48.002;7.788;2023-09-08T14:56:10;29.80;99.90
2002;DHT22;1003;48.002;7.788;2023-09-08T14:58:37;29.90;99.90
2002;DHT22;1003;48.002;7.788;2023-09-08T15:01:06;29.90;99.90
2002;DHT22;1003;48.002;7.788;2023-09-08T15:03:34;29.90;99.90
2002;DHT22;1003;48.002;7.788;2023-09-08T15:06:01;29.90;99.90
2002;DHT22;1003;48.002;7.788;2023-09-08T15:08:28;29.90;99.90
2002;DHT22;1003;48.002;7.788;2023-09-08T15:10:57;29.90;99.90
2002;DHT22;1003;48.002;7.788;2023-09-08T15:13:24;29.90;99.90
2002;DHT22;1003;48.002;7.788;2023-09-08T15:15:51;29.90;99.90
2002;DHT22;1003;48.002;7.788;2023-09-08T15:18:18;29.80;99.90
2002;DHT22;1003;48.002;7.788;2023-09-08T15:20:51;29.90;99.90
2002;DHT22;1003;48.002;7.788;2023-09-08T15:23:19;29.90;99.90
2002;DHT22;1003;48.002;7.788;2023-09-08T15:25:57;29.80;99.90
2002;DHT22;1003;48.002;7.788;2023-09-08T15:28:25;29.90;99.90
2002;DHT22;1003;48.002;7.788;2023-09-08T15:30:53;29.90;99.90
2002;DHT22;1003;48.002;7.788;2023-09-08T15:33:21;29.90;99.90
2002;DHT22;1003;48.002;7.788;2023-09-08T15:35:49;29.80;99.90
2002;DHT22;1003;48.002;7.788;2023-09-08T15:38:16;29.90;99.90
2002;DHT22;1003;48.002;7.788;2023-09-08T15:41:14;29.80;99.90
2002;DHT22;1003;48.002;7.788;2023-09-08T15:43:47;29.80;99.90
2002;DHT22;1003;48.002;7.788;2023-09-08T15:46:16;29.80;99.90
2002;DHT22;1003;48.002;7.788;2023-09-08T15:48:44;29.80;99.90
2002;DHT22;1003;48.002;7.788;2023-09-08T15:51:11;29.70;99.90
2002;DHT22;1003;48.002;7.788;2023-09-08T15:53:38;29.70;99.90
2002;DHT22;1003;48.002;7.788;2023-09-08T15:56:07;29.70;99.90
2002;DHT22;1003;48.002;7.788;2023-09-08T15:58:36;29.70;99.90
2002;DHT22;1003;48.002;7.788;2023-09-08T16:01:03;29.70;99.90
2002;DHT22;1003;48.002;7.788;2023-09-08T16:03:31;29.60;99.90
2002;DHT22;1003;48.002;7.788;2023-09-08T16:05:58;29.60;99.90
2002;DHT22;1003;48.002;7.788;2023-09-08T16:08:25;29.60;99.90
2002;DHT22;1003;48.002;7.788;2023-09-08T16:10:52;29.60;99.90
2002;DHT22;1003;48.002;7.788;2023-09-08T16:13:20;29.50;99.90
2002;DHT22;1003;48.002;7.788;2023-09-08T16:15:48;29.50;99.90